Augustinusga, Netherlands
Current Conditions -  °F | °C
As of 12:06 AM on Thursday 27 Nov 2014 (Local Time) from EHLW Reporting Station
Haze Haze  
Wind Chill: 33°   Ceiling: 1500
Heat Index: 41°   Visibility: 5mi
Dew Point: 36°   Wind: 14mph
Humidity: 81%   Direction: 130°SE
Pressure: 29.88"   Gusts: NA
Location:  53.22°N, 6.16°E
Report Text: EHLW 262306Z AUTO 13012KT 8000 BR OVC015 05/02 Q1012 WHT
Loading
Personal Weather Stations






























Interactive Weather Map New forecast layout! Learn more

10-Day Weather Forecast

Advertisements
Track Severe Weather on mobile